Weather at Buochs Airport

Public forecast

Using degrees Celsius for public forecast. Weather courtesy of forecast.io.

Current aviation weather report (METAR) for Buochs Airport

Retrieved 2022/05/21 04:50 UTC (28 minutes ago):

LSZC 210450Z AUTO 24003KT 210V270 9999 SCT027 SCT030 BKN085 18/16 Q1024

Closest aviation forecast (TAF) to Buochs Airport

Forecast is more than 12 hours old.

Closest forecast is Alpnach Air Base, 5.0 nm (9.2 km) WSW. Retrieved 2022/05/20 17:00 UTC (12 hours ago):

TAF LSMA 201625Z 2017/2123 07005KT CAVOK BECMG 2017/2021 9999 FEW040 SCT070 TEMPO 2017/2106 SHRA SCT040TCU TEMPO 2019/2104 3500 TSRA SCT045CB TEMPO 2112/2118 4500 SHRA FEW050TCU